Gander, Newfoundland

11:31 PM NDT on August 28, 2016 (GMT -0230)
Gander International | | Change Station

Elev 495 ft 48.95 °N, 54.58 °W | Updated 1 hour ago

Mostly Cloudy
Mostly Cloudy
54 °F
Feels Like 54 °F
N
4
Wind Variable Wind from SSE

Today
High -- | Low -- °F
--% Chance of Precip.
Yesterday
High -- | Low -- °F
Precip. -- in
Pressure 30.17 in
Visibility 20.0 miles
Clouds Mostly Cloudy 5500 ft
Mostly Cloudy 26000 ft
Dew Point 45 °F
Humidity 72%
Rainfall 0.00 in
Snow Depth Not available.
6:19 AM 7:57 PM
Waning Crescent, 12% visible
METAR CYQX 290100Z 15003KT 20SM BKN055 BKN260 12/07 A3016 RMK SC5CI1 SLP216
Pressure 30.17 in
Visibility 20.0 miles
Clouds Mostly Cloudy 5500 ft
Mostly Cloudy 26000 ft
Dew Point 45 °F
Humidity 72%
Rainfall 0.00 in
Snow Depth Not available.
6:19 AM 7:57 PM
Waning Crescent, 12% visible
METAR CYQX 290100Z 15003KT 20SM BKN055 BKN260 12/07 A3016 RMK SC5CI1 SLP216

10-Day Weather Forecast

No radar image for this location.
×

Almanac

Astronomy

Aug. 28, 2016 Rise Set
Actual Time
Civil Twilight
Nautical Twilight
Astronomical Twilight
Moon
Length of Visible Light
Length of Day
Tomorrow will be .
, % of the Moon is Illuminated

Today's Extremes

Country Highs Country Lows

Community

WunderPhotos

Upload Photos

1,935,768 photos uploaded!

WunderBlog® & News

Nearby

Air Quality

  Air Quality AQ Index Pollutant
Not available.

Snow Depth

Station Depth Elevation

Earthquake Activity

City Distance Mag. Time & Date
Minimum magnitude displayed is 2.5.

Coastal Water Temperatures

Place Temperature

Stations

Nearby Weather Stations

Station Location Temp. Windchill Dew Point Humidity Wind Precip. Elev Updated Type
                   

Watches & Warnings

There are currently no watches in effect.